sensor_id;sensor_type;location;lat;lon;timestamp;P1;durP1;ratioP1;P2;durP2;ratioP2
38994;SDS011;24769;18.712;99.000;2023-02-28T00:00:50;98.50;;;97.75;;
38994;SDS011;24769;18.712;99.000;2023-02-28T00:03:16;110.25;;;108.50;;
38994;SDS011;24769;18.712;99.000;2023-02-28T00:05:43;111.25;;;109.75;;
38994;SDS011;24769;18.712;99.000;2023-02-28T00:08:09;114.75;;;113.25;;
38994;SDS011;24769;18.712;99.000;2023-02-28T00:10:36;105.00;;;103.00;;
38994;SDS011;24769;18.712;99.000;2023-02-28T00:13:04;114.50;;;114.50;;
38994;SDS011;24769;18.712;99.000;2023-02-28T00:15:32;120.50;;;118.00;;
38994;SDS011;24769;18.712;99.000;2023-02-28T00:17:59;109.40;;;108.80;;
38994;SDS011;24769;18.712;99.000;2023-02-28T00:20:26;110.50;;;108.50;;
38994;SDS011;24769;18.712;99.000;2023-02-28T00:22:53;105.80;;;105.80;;
38994;SDS011;24769;18.712;99.000;2023-02-28T00:25:21;113.00;;;111.80;;
38994;SDS011;24769;18.712;99.000;2023-02-28T00:27:49;110.60;;;110.60;;
38994;SDS011;24769;18.712;99.000;2023-02-28T00:30:17;109.20;;;106.60;;
38994;SDS011;24769;18.712;99.000;2023-02-28T00:32:45;111.60;;;111.00;;
38994;SDS011;24769;18.712;99.000;2023-02-28T00:35:11;112.25;;;109.50;;
38994;SDS011;24769;18.712;99.000;2023-02-28T00:37:38;110.60;;;108.80;;
38994;SDS011;24769;18.712;99.000;2023-02-28T00:40:05;119.50;;;118.25;;
38994;SDS011;24769;18.712;99.000;2023-02-28T00:42:33;109.75;;;109.00;;
38994;SDS011;24769;18.712;99.000;2023-02-28T00:45:00;114.20;;;113.20;;
38994;SDS011;24769;18.712;99.000;2023-02-28T00:47:29;125.75;;;122.50;;
38994;SDS011;24769;18.712;99.000;2023-02-28T00:49:56;114.25;;;111.25;;
38994;SDS011;24769;18.712;99.000;2023-02-28T00:52:22;103.50;;;103.50;;
38994;SDS011;24769;18.712;99.000;2023-02-28T00:54:49;123.50;;;121.25;;
38994;SDS011;24769;18.712;99.000;2023-02-28T00:57:15;121.80;;;119.00;;
38994;SDS011;24769;18.712;99.000;2023-02-28T00:59:42;109.75;;;108.25;;
38994;SDS011;24769;18.712;99.000;2023-02-28T01:02:08;116.20;;;115.80;;
38994;SDS011;24769;18.712;99.000;2023-02-28T01:04:35;125.40;;;125.00;;
38994;SDS011;24769;18.712;99.000;2023-02-28T01:07:01;124.40;;;123.60;;
38994;SDS011;24769;18.712;99.000;2023-02-28T01:09:29;125.80;;;123.80;;
38994;SDS011;24769;18.712;99.000;2023-02-28T01:11:56;126.80;;;125.80;;
38994;SDS011;24769;18.712;99.000;2023-02-28T01:14:22;132.40;;;131.20;;
38994;SDS011;24769;18.712;99.000;2023-02-28T01:16:49;125.60;;;123.60;;
38994;SDS011;24769;18.712;99.000;2023-02-28T01:19:16;122.80;;;119.20;;
38994;SDS011;24769;18.712;99.000;2023-02-28T01:21:43;116.20;;;116.20;;
38994;SDS011;24769;18.712;99.000;2023-02-28T01:24:10;121.20;;;119.00;;
38994;SDS011;24769;18.712;99.000;2023-02-28T01:26:36;129.40;;;126.60;;
38994;SDS011;24769;18.712;99.000;2023-02-28T01:29:03;105.80;;;105.00;;
38994;SDS011;24769;18.712;99.000;2023-02-28T01:31:29;124.40;;;121.80;;
38994;SDS011;24769;18.712;99.000;2023-02-28T01:33:56;116.40;;;116.40;;
38994;SDS011;24769;18.712;99.000;2023-02-28T01:36:23;119.80;;;116.60;;
38994;SDS011;24769;18.712;99.000;2023-02-28T01:38:51;120.80;;;117.20;;
38994;SDS011;24769;18.712;99.000;2023-02-28T01:41:22;123.80;;;120.60;;
38994;SDS011;24769;18.712;99.000;2023-02-28T01:46:22;111.00;;;110.80;;
38994;SDS011;24769;18.712;99.000;2023-02-28T01:48:53;112.20;;;110.80;;
38994;SDS011;24769;18.712;99.000;2023-02-28T01:51:40;107.80;;;104.80;;
38994;SDS011;24769;18.712;99.000;2023-02-28T01:54:26;109.60;;;109.20;;
38994;SDS011;24769;18.712;99.000;2023-02-28T01:57:13;117.20;;;116.80;;
38994;SDS011;24769;18.712;99.000;2023-02-28T01:59:44;118.20;;;117.40;;
38994;SDS011;24769;18.712;99.000;2023-02-28T02:02:19;115.40;;;112.80;;
38994;SDS011;24769;18.712;99.000;2023-02-28T02:05:03;119.80;;;119.60;;
38994;SDS011;24769;18.712;99.000;2023-02-28T02:07:33;126.60;;;124.40;;
38994;SDS011;24769;18.712;99.000;2023-02-28T02:10:05;122.20;;;120.40;;
38994;SDS011;24769;18.712;99.000;2023-02-28T02:24:13;122.60;;;119.80;;
38994;SDS011;24769;18.712;99.000;2023-02-28T02:35:29;114.20;;;113.00;;
38994;SDS011;24769;18.712;99.000;2023-02-28T02:43:54;128.40;;;125.20;;
38994;SDS011;24769;18.712;99.000;2023-02-28T02:46:26;121.00;;;118.40;;
38994;SDS011;24769;18.712;99.000;2023-02-28T02:48:54;130.00;;;127.40;;
38994;SDS011;24769;18.712;99.000;2023-02-28T02:51:23;116.00;;;115.20;;
38994;SDS011;24769;18.712;99.000;2023-02-28T02:53:55;124.40;;;124.00;;
38994;SDS011;24769;18.712;99.000;2023-02-28T02:56:44;117.00;;;115.40;;
38994;SDS011;24769;18.712;99.000;2023-02-28T02:59:18;115.00;;;112.00;;
38994;SDS011;24769;18.712;99.000;2023-02-28T03:01:59;127.40;;;124.60;;
38994;SDS011;24769;18.712;99.000;2023-02-28T03:04:33;119.60;;;119.00;;
38994;SDS011;24769;18.712;99.000;2023-02-28T03:07:14;131.40;;;129.40;;
38994;SDS011;24769;18.712;99.000;2023-02-28T03:09:40;125.00;;;123.00;;
38994;SDS011;24769;18.712;99.000;2023-02-28T03:12:15;122.00;;;120.20;;
38994;SDS011;24769;18.712;99.000;2023-02-28T03:23:14;120.60;;;119.40;;
38994;SDS011;24769;18.712;99.000;2023-02-28T03:31:59;105.20;;;104.40;;
38994;SDS011;24769;18.712;99.000;2023-02-28T03:34:37;116.40;;;116.40;;
38994;SDS011;24769;18.712;99.000;2023-02-28T03:37:10;119.60;;;118.60;;
38994;SDS011;24769;18.712;99.000;2023-02-28T03:39:42;115.80;;;112.20;;
38994;SDS011;24769;18.712;99.000;2023-02-28T03:42:31;124.00;;;121.60;;
38994;SDS011;24769;18.712;99.000;2023-02-28T03:45:18;116.40;;;116.40;;
38994;SDS011;24769;18.712;99.000;2023-02-28T03:48:03;108.20;;;106.60;;
38994;SDS011;24769;18.712;99.000;2023-02-28T03:50:39;112.60;;;111.40;;
38994;SDS011;24769;18.712;99.000;2023-02-28T03:53:15;112.80;;;111.20;;
38994;SDS011;24769;18.712;99.000;2023-02-28T03:55:48;116.80;;;115.40;;
38994;SDS011;24769;18.712;99.000;2023-02-28T04:01:11;116.40;;;113.40;;
38994;SDS011;24769;18.712;99.000;2023-02-28T04:03:43;117.00;;;116.20;;
38994;SDS011;24769;18.712;99.000;2023-02-28T04:06:14;116.80;;;113.80;;
38994;SDS011;24769;18.712;99.000;2023-02-28T04:08:46;117.20;;;116.80;;
38994;SDS011;24769;18.712;99.000;2023-02-28T04:13:55;119.00;;;118.40;;
38994;SDS011;24769;18.712;99.000;2023-02-28T04:16:21;113.80;;;112.20;;
38994;SDS011;24769;18.712;99.000;2023-02-28T04:18:48;116.20;;;115.80;;
38994;SDS011;24769;18.712;99.000;2023-02-28T04:21:14;122.80;;;120.80;;
38994;SDS011;24769;18.712;99.000;2023-02-28T04:23:45;115.00;;;113.80;;
38994;SDS011;24769;18.712;99.000;2023-02-28T04:26:12;118.20;;;117.40;;
38994;SDS011;24769;18.712;99.000;2023-02-28T04:28:38;118.60;;;117.00;;
38994;SDS011;24769;18.712;99.000;2023-02-28T04:31:05;113.40;;;112.20;;
38994;SDS011;24769;18.712;99.000;2023-02-28T04:33:32;122.00;;;121.20;;
38994;SDS011;24769;18.712;99.000;2023-02-28T04:36:02;118.60;;;118.40;;
38994;SDS011;24769;18.712;99.000;2023-02-28T04:38:33;124.00;;;122.00;;
38994;SDS011;24769;18.712;99.000;2023-02-28T04:41:02;121.00;;;118.80;;
38994;SDS011;24769;18.712;99.000;2023-02-28T04:43:29;123.60;;;121.40;;
38994;SDS011;24769;18.712;99.000;2023-02-28T04:45:57;126.40;;;124.00;;
38994;SDS011;24769;18.712;99.000;2023-02-28T04:48:30;129.40;;;128.40;;
38994;SDS011;24769;18.712;99.000;2023-02-28T04:51:01;131.60;;;130.80;;
38994;SDS011;24769;18.712;99.000;2023-02-28T04:53:33;129.00;;;127.80;;
38994;SDS011;24769;18.712;99.000;2023-02-28T04:56:00;127.80;;;125.80;;
38994;SDS011;24769;18.712;99.000;2023-02-28T04:58:27;123.40;;;121.80;;
38994;SDS011;24769;18.712;99.000;2023-02-28T05:00:53;123.40;;;123.40;;
38994;SDS011;24769;18.712;99.000;2023-02-28T05:03:26;123.40;;;122.00;;
38994;SDS011;24769;18.712;99.000;2023-02-28T05:05:53;132.20;;;130.60;;
38994;SDS011;24769;18.712;99.000;2023-02-28T05:08:19;133.00;;;132.60;;
38994;SDS011;24769;18.712;99.000;2023-02-28T05:10:45;124.40;;;124.20;;
38994;SDS011;24769;18.712;99.000;2023-02-28T05:13:12;131.00;;;126.60;;
38994;SDS011;24769;18.712;99.000;2023-02-28T05:15:38;129.20;;;128.80;;
38994;SDS011;24769;18.712;99.000;2023-02-28T05:18:05;136.20;;;136.00;;
38994;SDS011;24769;18.712;99.000;2023-02-28T05:20:33;125.80;;;125.00;;
38994;SDS011;24769;18.712;99.000;2023-02-28T05:23:00;124.80;;;122.60;;
38994;SDS011;24769;18.712;99.000;2023-02-28T05:25:28;122.60;;;122.40;;
38994;SDS011;24769;18.712;99.000;2023-02-28T05:27:55;119.00;;;119.00;;
38994;SDS011;24769;18.712;99.000;2023-02-28T05:30:21;102.00;;;98.20;;
38994;SDS011;24769;18.712;99.000;2023-02-28T05:32:49;121.60;;;119.80;;
38994;SDS011;24769;18.712;99.000;2023-02-28T05:35:17;113.00;;;112.40;;
38994;SDS011;24769;18.712;99.000;2023-02-28T05:37:43;128.60;;;127.00;;
38994;SDS011;24769;18.712;99.000;2023-02-28T05:40:10;120.40;;;119.00;;
38994;SDS011;24769;18.712;99.000;2023-02-28T05:42:37;129.40;;;126.80;;
38994;SDS011;24769;18.712;99.000;2023-02-28T05:45:04;121.20;;;121.20;;
38994;SDS011;24769;18.712;99.000;2023-02-28T05:47:32;121.60;;;118.80;;
38994;SDS011;24769;18.712;99.000;2023-02-28T05:49:58;133.00;;;131.00;;
38994;SDS011;24769;18.712;99.000;2023-02-28T05:52:25;118.80;;;118.40;;
38994;SDS011;24769;18.712;99.000;2023-02-28T05:54:52;128.60;;;126.00;;
38994;SDS011;24769;18.712;99.000;2023-02-28T05:57:18;120.80;;;120.00;;
38994;SDS011;24769;18.712;99.000;2023-02-28T05:59:45;118.60;;;115.20;;
38994;SDS011;24769;18.712;99.000;2023-02-28T06:02:12;120.20;;;119.20;;
38994;SDS011;24769;18.712;99.000;2023-02-28T06:04:42;116.00;;;116.00;;
38994;SDS011;24769;18.712;99.000;2023-02-28T06:07:09;120.00;;;119.00;;
38994;SDS011;24769;18.712;99.000;2023-02-28T06:09:37;109.20;;;107.40;;
38994;SDS011;24769;18.712;99.000;2023-02-28T06:12:04;125.20;;;122.20;;
38994;SDS011;24769;18.712;99.000;2023-02-28T06:14:32;108.80;;;108.60;;
38994;SDS011;24769;18.712;99.000;2023-02-28T06:17:00;112.00;;;111.80;;
38994;SDS011;24769;18.712;99.000;2023-02-28T06:19:27;118.40;;;117.80;;
38994;SDS011;24769;18.712;99.000;2023-02-28T06:21:55;110.00;;;109.80;;
38994;SDS011;24769;18.712;99.000;2023-02-28T06:24:23;117.40;;;116.20;;
38994;SDS011;24769;18.712;99.000;2023-02-28T06:26:53;104.20;;;103.00;;
38994;SDS011;24769;18.712;99.000;2023-02-28T06:29:19;109.80;;;108.80;;
38994;SDS011;24769;18.712;99.000;2023-02-28T06:31:46;107.80;;;107.80;;
38994;SDS011;24769;18.712;99.000;2023-02-28T06:34:13;119.80;;;119.60;;
38994;SDS011;24769;18.712;99.000;2023-02-28T06:36:41;114.00;;;113.60;;
38994;SDS011;24769;18.712;99.000;2023-02-28T06:39:08;106.75;;;106.50;;
38994;SDS011;24769;18.712;99.000;2023-02-28T06:41:35;104.20;;;103.80;;
38994;SDS011;24769;18.712;99.000;2023-02-28T06:44:21;98.25;;;97.75;;
38994;SDS011;24769;18.712;99.000;2023-02-28T06:46:48;92.25;;;91.25;;
38994;SDS011;24769;18.712;99.000;2023-02-28T06:49:15;108.40;;;105.40;;
38994;SDS011;24769;18.712;99.000;2023-02-28T06:51:43;105.00;;;105.00;;
38994;SDS011;24769;18.712;99.000;2023-02-28T06:54:10;99.20;;;97.00;;
38994;SDS011;24769;18.712;99.000;2023-02-28T06:56:37;99.25;;;98.25;;
38994;SDS011;24769;18.712;99.000;2023-02-28T06:59:04;98.00;;;98.00;;
38994;SDS011;24769;18.712;99.000;2023-02-28T07:01:31;93.00;;;91.00;;
38994;SDS011;24769;18.712;99.000;2023-02-28T07:03:58;102.75;;;101.25;;
38994;SDS011;24769;18.712;99.000;2023-02-28T07:06:25;105.20;;;105.00;;
38994;SDS011;24769;18.712;99.000;2023-02-28T07:08:52;106.50;;;104.75;;
38994;SDS011;24769;18.712;99.000;2023-02-28T07:11:20;102.00;;;101.50;;
38994;SDS011;24769;18.712;99.000;2023-02-28T07:13:49;102.00;;;101.25;;
38994;SDS011;24769;18.712;99.000;2023-02-28T07:16:16;89.50;;;89.25;;
38994;SDS011;24769;18.712;99.000;2023-02-28T07:18:42;103.60;;;102.00;;
38994;SDS011;24769;18.712;99.000;2023-02-28T07:21:09;100.80;;;99.60;;
38994;SDS011;24769;18.712;99.000;2023-02-28T07:23:37;104.75;;;101.25;;
38994;SDS011;24769;18.712;99.000;2023-02-28T07:26:07;101.75;;;100.50;;
38994;SDS011;24769;18.712;99.000;2023-02-28T07:28:40;100.75;;;99.75;;
38994;SDS011;24769;18.712;99.000;2023-02-28T07:31:08;102.50;;;101.25;;
38994;SDS011;24769;18.712;99.000;2023-02-28T07:33:35;98.50;;;98.25;;
38994;SDS011;24769;18.712;99.000;2023-02-28T07:36:03;99.00;;;97.50;;
38994;SDS011;24769;18.712;99.000;2023-02-28T07:38:35;104.40;;;103.80;;
38994;SDS011;24769;18.712;99.000;2023-02-28T07:41:03;100.00;;;98.40;;
38994;SDS011;24769;18.712;99.000;2023-02-28T07:43:30;94.50;;;94.25;;
38994;SDS011;24769;18.712;99.000;2023-02-28T07:46:01;99.75;;;99.75;;
38994;SDS011;24769;18.712;99.000;2023-02-28T07:48:36;103.00;;;102.00;;
38994;SDS011;24769;18.712;99.000;2023-02-28T07:51:02;101.00;;;101.00;;
38994;SDS011;24769;18.712;99.000;2023-02-28T07:53:29;89.25;;;88.75;;
38994;SDS011;24769;18.712;99.000;2023-02-28T07:55:56;102.75;;;101.75;;
38994;SDS011;24769;18.712;99.000;2023-02-28T07:58:23;99.25;;;97.75;;
38994;SDS011;24769;18.712;99.000;2023-02-28T08:00:53;99.00;;;97.75;;
38994;SDS011;24769;18.712;99.000;2023-02-28T08:03:20;102.50;;;102.00;;
38994;SDS011;24769;18.712;99.000;2023-02-28T08:05:48;102.25;;;101.00;;
38994;SDS011;24769;18.712;99.000;2023-02-28T08:08:15;99.00;;;98.25;;
38994;SDS011;24769;18.712;99.000;2023-02-28T08:10:42;94.75;;;94.00;;
38994;SDS011;24769;18.712;99.000;2023-02-28T08:13:12;98.25;;;97.50;;
38994;SDS011;24769;18.712;99.000;2023-02-28T08:15:40;95.75;;;95.75;;
38994;SDS011;24769;18.712;99.000;2023-02-28T08:18:08;106.20;;;105.60;;
38994;SDS011;24769;18.712;99.000;2023-02-28T08:20:34;104.00;;;102.00;;
38994;SDS011;24769;18.712;99.000;2023-02-28T08:23:01;99.60;;;97.60;;
38994;SDS011;24769;18.712;99.000;2023-02-28T08:25:27;97.25;;;94.75;;
38994;SDS011;24769;18.712;99.000;2023-02-28T08:27:54;103.25;;;102.25;;
38994;SDS011;24769;18.712;99.000;2023-02-28T08:30:21;94.50;;;94.25;;
38994;SDS011;24769;18.712;99.000;2023-02-28T08:32:47;98.40;;;98.40;;
38994;SDS011;24769;18.712;99.000;2023-02-28T08:35:14;104.75;;;104.00;;
38994;SDS011;24769;18.712;99.000;2023-02-28T08:37:40;106.40;;;106.00;;
38994;SDS011;24769;18.712;99.000;2023-02-28T08:40:07;100.00;;;98.75;;
38994;SDS011;24769;18.712;99.000;2023-02-28T08:42:34;96.75;;;95.25;;
38994;SDS011;24769;18.712;99.000;2023-02-28T08:45:01;103.00;;;102.20;;
38994;SDS011;24769;18.712;99.000;2023-02-28T08:47:28;96.25;;;96.25;;
38994;SDS011;24769;18.712;99.000;2023-02-28T08:49:54;91.60;;;91.60;;
38994;SDS011;24769;18.712;99.000;2023-02-28T08:52:21;104.40;;;102.80;;
38994;SDS011;24769;18.712;99.000;2023-02-28T08:54:47;86.20;;;81.20;;
38994;SDS011;24769;18.712;99.000;2023-02-28T08:57:14;107.00;;;104.80;;
38994;SDS011;24769;18.712;99.000;2023-02-28T08:59:41;103.25;;;102.75;;
38994;SDS011;24769;18.712;99.000;2023-02-28T09:02:08;102.20;;;102.00;;
38994;SDS011;24769;18.712;99.000;2023-02-28T09:04:37;101.40;;;100.60;;
38994;SDS011;24769;18.712;99.000;2023-02-28T09:07:04;97.25;;;97.25;;
38994;SDS011;24769;18.712;99.000;2023-02-28T09:09:30;106.20;;;105.40;;
38994;SDS011;24769;18.712;99.000;2023-02-28T09:11:57;97.80;;;97.20;;
38994;SDS011;24769;18.712;99.000;2023-02-28T09:14:24;91.80;;;91.80;;
38994;SDS011;24769;18.712;99.000;2023-02-28T09:16:51;92.00;;;91.00;;
38994;SDS011;24769;18.712;99.000;2023-02-28T09:19:17;104.00;;;102.80;;
38994;SDS011;24769;18.712;99.000;2023-02-28T09:21:44;101.50;;;100.00;;
38994;SDS011;24769;18.712;99.000;2023-02-28T09:24:10;99.60;;;99.60;;
38994;SDS011;24769;18.712;99.000;2023-02-28T09:26:39;96.60;;;96.20;;
38994;SDS011;24769;18.712;99.000;2023-02-28T09:29:06;104.20;;;102.80;;
38994;SDS011;24769;18.712;99.000;2023-02-28T09:31:33;104.20;;;103.00;;
38994;SDS011;24769;18.712;99.000;2023-02-28T09:33:59;104.60;;;103.20;;
38994;SDS011;24769;18.712;99.000;2023-02-28T09:36:27;103.80;;;102.20;;
38994;SDS011;24769;18.712;99.000;2023-02-28T09:38:55;102.20;;;100.20;;
38994;SDS011;24769;18.712;99.000;2023-02-28T09:41:22;102.00;;;101.40;;
38994;SDS011;24769;18.712;99.000;2023-02-28T09:43:56;110.80;;;109.00;;
38994;SDS011;24769;18.712;99.000;2023-02-28T09:46:30;110.60;;;110.60;;
38994;SDS011;24769;18.712;99.000;2023-02-28T09:49:05;101.60;;;99.40;;
38994;SDS011;24769;18.712;99.000;2023-02-28T09:54:15;105.20;;;104.40;;
38994;SDS011;24769;18.712;99.000;2023-02-28T09:56:45;108.60;;;107.20;;
38994;SDS011;24769;18.712;99.000;2023-02-28T09:59:48;107.20;;;107.00;;
38994;SDS011;24769;18.712;99.000;2023-02-28T10:05:42;101.80;;;100.00;;
38994;SDS011;24769;18.712;99.000;2023-02-28T10:08:21;107.40;;;106.60;;
38994;SDS011;24769;18.712;99.000;2023-02-28T10:11:02;108.60;;;107.80;;
38994;SDS011;24769;18.712;99.000;2023-02-28T10:16:34;106.60;;;105.40;;
38994;SDS011;24769;18.712;99.000;2023-02-28T10:24:46;109.20;;;108.60;;
38994;SDS011;24769;18.712;99.000;2023-02-28T10:27:28;108.40;;;105.40;;
38994;SDS011;24769;18.712;99.000;2023-02-28T10:29:57;105.20;;;104.60;;
38994;SDS011;24769;18.712;99.000;2023-02-28T10:34:59;103.40;;;102.00;;
38994;SDS011;24769;18.712;99.000;2023-02-28T10:37:41;110.20;;;110.20;;
38994;SDS011;24769;18.712;99.000;2023-02-28T10:40:24;107.20;;;107.20;;
38994;SDS011;24769;18.712;99.000;2023-02-28T10:48:33;105.60;;;105.00;;
38994;SDS011;24769;18.712;99.000;2023-02-28T10:51:12;118.00;;;116.80;;
38994;SDS011;24769;18.712;99.000;2023-02-28T10:56:17;103.20;;;100.20;;
38994;SDS011;24769;18.712;99.000;2023-02-28T10:59:01;114.40;;;113.60;;
38994;SDS011;24769;18.712;99.000;2023-02-28T11:01:47;115.60;;;115.20;;
38994;SDS011;24769;18.712;99.000;2023-02-28T11:04:20;103.20;;;103.20;;
38994;SDS011;24769;18.712;99.000;2023-02-28T11:07:02;115.60;;;114.40;;
38994;SDS011;24769;18.712;99.000;2023-02-28T11:09:49;108.80;;;108.80;;
38994;SDS011;24769;18.712;99.000;2023-02-28T11:12:35;112.40;;;110.20;;
38994;SDS011;24769;18.712;99.000;2023-02-28T11:15:06;115.60;;;115.60;;
38994;SDS011;24769;18.712;99.000;2023-02-28T11:17:45;108.40;;;106.40;;
38994;SDS011;24769;18.712;99.000;2023-02-28T11:20:22;107.60;;;106.40;;
38994;SDS011;24769;18.712;99.000;2023-02-28T11:22:51;113.80;;;110.40;;
38994;SDS011;24769;18.712;99.000;2023-02-28T11:25:27;118.80;;;117.00;;
38994;SDS011;24769;18.712;99.000;2023-02-28T11:28:01;113.60;;;111.80;;
38994;SDS011;24769;18.712;99.000;2023-02-28T11:30:38;111.00;;;109.80;;
38994;SDS011;24769;18.712;99.000;2023-02-28T11:36:01;119.60;;;118.00;;
38994;SDS011;24769;18.712;99.000;2023-02-28T11:38:34;114.80;;;114.20;;
38994;SDS011;24769;18.712;99.000;2023-02-28T11:41:12;111.60;;;110.80;;
38994;SDS011;24769;18.712;99.000;2023-02-28T11:46:50;123.60;;;121.40;;
38994;SDS011;24769;18.712;99.000;2023-02-28T11:49:27;114.00;;;114.00;;
38994;SDS011;24769;18.712;99.000;2023-02-28T11:52:24;120.60;;;119.80;;
38994;SDS011;24769;18.712;99.000;2023-02-28T12:00:57;130.60;;;127.60;;
38994;SDS011;24769;18.712;99.000;2023-02-28T12:11:54;132.40;;;129.20;;
38994;SDS011;24769;18.712;99.000;2023-02-28T12:28:13;140.60;;;139.00;;
38994;SDS011;24769;18.712;99.000;2023-02-28T12:30:49;137.20;;;133.20;;
38994;SDS011;24769;18.712;99.000;2023-02-28T12:33:29;124.40;;;124.40;;
38994;SDS011;24769;18.712;99.000;2023-02-28T12:36:01;139.60;;;136.40;;
38994;SDS011;24769;18.712;99.000;2023-02-28T12:41:37;132.40;;;130.40;;
38994;SDS011;24769;18.712;99.000;2023-02-28T12:44:12;135.80;;;132.60;;
38994;SDS011;24769;18.712;99.000;2023-02-28T12:46:47;132.60;;;131.00;;
38994;SDS011;24769;18.712;99.000;2023-02-28T12:51:55;140.60;;;135.40;;
38994;SDS011;24769;18.712;99.000;2023-02-28T12:54:36;136.20;;;134.00;;
38994;SDS011;24769;18.712;99.000;2023-02-28T12:59:52;126.20;;;124.80;;
38994;SDS011;24769;18.712;99.000;2023-02-28T13:08:11;136.60;;;136.40;;
38994;SDS011;24769;18.712;99.000;2023-02-28T13:16:57;141.40;;;137.20;;
38994;SDS011;24769;18.712;99.000;2023-02-28T13:19:28;138.80;;;134.40;;
38994;SDS011;24769;18.712;99.000;2023-02-28T13:21:58;141.00;;;138.20;;
38994;SDS011;24769;18.712;99.000;2023-02-28T13:27:20;136.80;;;135.40;;
38994;SDS011;24769;18.712;99.000;2023-02-28T13:29:57;137.60;;;134.40;;
38994;SDS011;24769;18.712;99.000;2023-02-28T13:39:54;146.80;;;144.40;;
38994;SDS011;24769;18.712;99.000;2023-02-28T13:47:33;154.20;;;149.00;;
38994;SDS011;24769;18.712;99.000;2023-02-28T13:52:57;147.00;;;145.50;;
38994;SDS011;24769;18.712;99.000;2023-02-28T14:01:58;146.60;;;142.80;;
38994;SDS011;24769;18.712;99.000;2023-02-28T14:07:15;127.00;;;124.20;;
38994;SDS011;24769;18.712;99.000;2023-02-28T14:10:00;139.75;;;138.50;;
38994;SDS011;24769;18.712;99.000;2023-02-28T14:20:49;141.00;;;141.00;;
38994;SDS011;24769;18.712;99.000;2023-02-28T14:37:30;150.00;;;145.60;;
38994;SDS011;24769;18.712;99.000;2023-02-28T14:40:00;144.20;;;139.60;;
38994;SDS011;24769;18.712;99.000;2023-02-28T14:45:16;144.00;;;140.00;;
38994;SDS011;24769;18.712;99.000;2023-02-28T14:47:45;146.20;;;141.40;;
38994;SDS011;24769;18.712;99.000;2023-02-28T14:50:22;129.40;;;128.80;;
38994;SDS011;24769;18.712;99.000;2023-02-28T14:52:52;137.60;;;137.20;;
38994;SDS011;24769;18.712;99.000;2023-02-28T14:55:24;139.75;;;135.75;;
38994;SDS011;24769;18.712;99.000;2023-02-28T14:58:01;144.20;;;138.40;;
38994;SDS011;24769;18.712;99.000;2023-02-28T15:00:42;132.00;;;126.75;;
38994;SDS011;24769;18.712;99.000;2023-02-28T15:03:18;151.00;;;149.25;;
38994;SDS011;24769;18.712;99.000;2023-02-28T15:06:02;143.75;;;138.00;;
38994;SDS011;24769;18.712;99.000;2023-02-28T15:08:37;146.00;;;140.50;;
38994;SDS011;24769;18.712;99.000;2023-02-28T15:11:05;155.00;;;150.25;;
38994;SDS011;24769;18.712;99.000;2023-02-28T15:16:26;141.25;;;137.75;;
38994;SDS011;24769;18.712;99.000;2023-02-28T15:18:57;153.75;;;146.75;;
38994;SDS011;24769;18.712;99.000;2023-02-28T15:21:33;134.50;;;134.00;;
38994;SDS011;24769;18.712;99.000;2023-02-28T15:24:13;141.00;;;140.00;;
38994;SDS011;24769;18.712;99.000;2023-02-28T15:26:51;145.00;;;143.50;;
38994;SDS011;24769;18.712;99.000;2023-02-28T15:29:25;146.00;;;144.25;;
38994;SDS011;24769;18.712;99.000;2023-02-28T15:31:56;147.75;;;146.50;;
38994;SDS011;24769;18.712;99.000;2023-02-28T15:40:44;149.50;;;145.00;;
38994;SDS011;24769;18.712;99.000;2023-02-28T15:43:07;147.50;;;145.00;;
38994;SDS011;24769;18.712;99.000;2023-02-28T15:45:47;144.50;;;141.75;;
38994;SDS011;24769;18.712;99.000;2023-02-28T15:48:25;157.00;;;152.75;;
38994;SDS011;24769;18.712;99.000;2023-02-28T15:50:57;157.50;;;152.50;;
38994;SDS011;24769;18.712;99.000;2023-02-28T15:53:39;153.75;;;152.75;;
38994;SDS011;24769;18.712;99.000;2023-02-28T15:58:55;148.25;;;146.00;;
38994;SDS011;24769;18.712;99.000;2023-02-28T16:01:25;148.75;;;145.25;;
38994;SDS011;24769;18.712;99.000;2023-02-28T16:03:59;152.75;;;147.50;;
38994;SDS011;24769;18.712;99.000;2023-02-28T16:06:35;155.00;;;150.00;;
38994;SDS011;24769;18.712;99.000;2023-02-28T16:09:22;161.50;;;154.00;;
38994;SDS011;24769;18.712;99.000;2023-02-28T16:11:49;153.50;;;149.50;;
38994;SDS011;24769;18.712;99.000;2023-02-28T16:14:22;154.00;;;151.25;;
38994;SDS011;24769;18.712;99.000;2023-02-28T16:16:53;145.50;;;144.75;;
38994;SDS011;24769;18.712;99.000;2023-02-28T16:19:22;155.25;;;153.50;;
38994;SDS011;24769;18.712;99.000;2023-02-28T16:21:49;144.75;;;141.75;;
38994;SDS011;24769;18.712;99.000;2023-02-28T16:24:16;159.50;;;154.25;;
38994;SDS011;24769;18.712;99.000;2023-02-28T16:26:45;148.50;;;144.25;;
38994;SDS011;24769;18.712;99.000;2023-02-28T16:29:15;150.00;;;147.75;;
38994;SDS011;24769;18.712;99.000;2023-02-28T16:31:49;153.75;;;151.25;;
38994;SDS011;24769;18.712;99.000;2023-02-28T16:34:16;139.00;;;137.50;;
38994;SDS011;24769;18.712;99.000;2023-02-28T16:36:46;158.00;;;153.50;;
38994;SDS011;24769;18.712;99.000;2023-02-28T16:39:15;150.00;;;148.00;;
38994;SDS011;24769;18.712;99.000;2023-02-28T16:41:42;161.00;;;155.25;;
38994;SDS011;24769;18.712;99.000;2023-02-28T16:44:11;149.75;;;148.75;;
38994;SDS011;24769;18.712;99.000;2023-02-28T16:46:45;163.00;;;156.25;;
38994;SDS011;24769;18.712;99.000;2023-02-28T16:49:12;154.50;;;149.50;;
38994;SDS011;24769;18.712;99.000;2023-02-28T16:51:39;156.25;;;154.75;;
38994;SDS011;24769;18.712;99.000;2023-02-28T16:54:05;149.50;;;144.25;;
38994;SDS011;24769;18.712;99.000;2023-02-28T16:56:32;148.00;;;145.75;;
38994;SDS011;24769;18.712;99.000;2023-02-28T16:59:00;154.50;;;150.00;;
38994;SDS011;24769;18.712;99.000;2023-02-28T17:01:27;156.25;;;154.50;;
38994;SDS011;24769;18.712;99.000;2023-02-28T17:03:54;164.50;;;159.00;;
38994;SDS011;24769;18.712;99.000;2023-02-28T17:06:23;156.25;;;152.25;;
38994;SDS011;24769;18.712;99.000;2023-02-28T17:08:53;154.25;;;152.00;;
38994;SDS011;24769;18.712;99.000;2023-02-28T17:11:20;156.75;;;155.00;;
38994;SDS011;24769;18.712;99.000;2023-02-28T17:13:47;153.00;;;149.25;;
38994;SDS011;24769;18.712;99.000;2023-02-28T17:16:34;149.00;;;146.75;;
38994;SDS011;24769;18.712;99.000;2023-02-28T17:19:02;148.25;;;146.00;;